sensor_id;sensor_type;location;lat;lon;timestamp;P1;durP1;ratioP1;P2;durP2;ratioP2
17727;SDS011;8984;49.268;12.302;2023-09-08T00:00:06;5.13;;;4.60;;
17727;SDS011;8984;49.268;12.302;2023-09-08T00:02:38;5.27;;;4.50;;
17727;SDS011;8984;49.268;12.302;2023-09-08T00:05:12;4.70;;;4.17;;
17727;SDS011;8984;49.268;12.302;2023-09-08T00:07:41;6.57;;;4.83;;
17727;SDS011;8984;49.268;12.302;2023-09-08T00:10:35;7.70;;;4.80;;
17727;SDS011;8984;49.268;12.302;2023-09-08T00:13:06;6.27;;;4.57;;
17727;SDS011;8984;49.268;12.302;2023-09-08T00:15:51;6.13;;;4.27;;
17727;SDS011;8984;49.268;12.302;2023-09-08T00:18:33;5.53;;;4.67;;
17727;SDS011;8984;49.268;12.302;2023-09-08T00:21:07;5.60;;;4.57;;
17727;SDS011;8984;49.268;12.302;2023-09-08T00:24:01;8.47;;;4.70;;
17727;SDS011;8984;49.268;12.302;2023-09-08T00:26:32;8.53;;;4.60;;
17727;SDS011;8984;49.268;12.302;2023-09-08T00:29:07;7.37;;;4.67;;
17727;SDS011;8984;49.268;12.302;2023-09-08T00:31:37;6.27;;;4.03;;
17727;SDS011;8984;49.268;12.302;2023-09-08T00:34:07;6.80;;;4.20;;
17727;SDS011;8984;49.268;12.302;2023-09-08T00:36:44;7.10;;;4.60;;
17727;SDS011;8984;49.268;12.302;2023-09-08T00:39:19;7.03;;;4.30;;
17727;SDS011;8984;49.268;12.302;2023-09-08T00:41:51;7.53;;;4.37;;
17727;SDS011;8984;49.268;12.302;2023-09-08T00:44:22;5.07;;;4.13;;
17727;SDS011;8984;49.268;12.302;2023-09-08T00:46:59;6.10;;;4.93;;
17727;SDS011;8984;49.268;12.302;2023-09-08T00:49:27;5.97;;;4.60;;
17727;SDS011;8984;49.268;12.302;2023-09-08T00:51:58;5.80;;;4.33;;
17727;SDS011;8984;49.268;12.302;2023-09-08T00:54:29;5.00;;;4.20;;
17727;SDS011;8984;49.268;12.302;2023-09-08T00:57:12;5.60;;;4.27;;
17727;SDS011;8984;49.268;12.302;2023-09-08T00:59:42;5.67;;;4.40;;
17727;SDS011;8984;49.268;12.302;2023-09-08T01:02:16;5.30;;;4.80;;
17727;SDS011;8984;49.268;12.302;2023-09-08T01:04:57;5.40;;;4.47;;
17727;SDS011;8984;49.268;12.302;2023-09-08T01:07:26;6.43;;;4.87;;
17727;SDS011;8984;49.268;12.302;2023-09-08T01:10:00;5.57;;;4.80;;
17727;SDS011;8984;49.268;12.302;2023-09-08T01:12:38;6.20;;;5.30;;
17727;SDS011;8984;49.268;12.302;2023-09-08T01:15:09;5.53;;;4.83;;
17727;SDS011;8984;49.268;12.302;2023-09-08T01:17:45;6.97;;;5.50;;
17727;SDS011;8984;49.268;12.302;2023-09-08T01:20:17;6.27;;;5.13;;
17727;SDS011;8984;49.268;12.302;2023-09-08T01:23:03;7.80;;;5.17;;
17727;SDS011;8984;49.268;12.302;2023-09-08T01:25:51;6.13;;;5.10;;
17727;SDS011;8984;49.268;12.302;2023-09-08T01:28:38;6.50;;;5.00;;
17727;SDS011;8984;49.268;12.302;2023-09-08T01:31:15;10.00;;;5.13;;
17727;SDS011;8984;49.268;12.302;2023-09-08T01:33:47;6.23;;;4.40;;
17727;SDS011;8984;49.268;12.302;2023-09-08T01:36:19;6.20;;;4.80;;
17727;SDS011;8984;49.268;12.302;2023-09-08T01:38:48;5.63;;;4.63;;
17727;SDS011;8984;49.268;12.302;2023-09-08T01:41:22;7.17;;;4.70;;
17727;SDS011;8984;49.268;12.302;2023-09-08T01:43:51;6.83;;;5.53;;
17727;SDS011;8984;49.268;12.302;2023-09-08T01:46:23;10.83;;;4.80;;
17727;SDS011;8984;49.268;12.302;2023-09-08T01:48:54;6.90;;;4.93;;
17727;SDS011;8984;49.268;12.302;2023-09-08T01:51:32;9.20;;;5.30;;
17727;SDS011;8984;49.268;12.302;2023-09-08T01:54:02;8.27;;;5.17;;
17727;SDS011;8984;49.268;12.302;2023-09-08T01:56:37;7.60;;;5.60;;
17727;SDS011;8984;49.268;12.302;2023-09-08T01:59:09;5.87;;;5.17;;
17727;SDS011;8984;49.268;12.302;2023-09-08T02:01:46;6.90;;;5.30;;
17727;SDS011;8984;49.268;12.302;2023-09-08T02:04:19;5.57;;;4.97;;
17727;SDS011;8984;49.268;12.302;2023-09-08T02:06:49;5.77;;;5.17;;
17727;SDS011;8984;49.268;12.302;2023-09-08T02:09:19;7.30;;;4.53;;
17727;SDS011;8984;49.268;12.302;2023-09-08T02:11:54;6.50;;;4.73;;
17727;SDS011;8984;49.268;12.302;2023-09-08T02:14:22;8.97;;;5.10;;
17727;SDS011;8984;49.268;12.302;2023-09-08T02:16:55;5.37;;;4.77;;
17727;SDS011;8984;49.268;12.302;2023-09-08T02:19:32;6.60;;;5.17;;
17727;SDS011;8984;49.268;12.302;2023-09-08T02:22:03;5.83;;;4.60;;
17727;SDS011;8984;49.268;12.302;2023-09-08T02:24:40;9.03;;;5.50;;
17727;SDS011;8984;49.268;12.302;2023-09-08T02:27:12;6.93;;;5.27;;
17727;SDS011;8984;49.268;12.302;2023-09-08T02:29:55;5.30;;;4.80;;
17727;SDS011;8984;49.268;12.302;2023-09-08T02:32:24;5.93;;;5.40;;
17727;SDS011;8984;49.268;12.302;2023-09-08T02:34:52;7.27;;;4.77;;
17727;SDS011;8984;49.268;12.302;2023-09-08T02:37:26;5.00;;;4.47;;
17727;SDS011;8984;49.268;12.302;2023-09-08T02:39:57;5.00;;;4.50;;
17727;SDS011;8984;49.268;12.302;2023-09-08T02:42:27;7.73;;;4.93;;
17727;SDS011;8984;49.268;12.302;2023-09-08T02:44:57;7.83;;;5.40;;
17727;SDS011;8984;49.268;12.302;2023-09-08T02:47:44;7.83;;;4.93;;
17727;SDS011;8984;49.268;12.302;2023-09-08T02:50:12;8.67;;;4.87;;
17727;SDS011;8984;49.268;12.302;2023-09-08T02:52:42;7.13;;;4.70;;
17727;SDS011;8984;49.268;12.302;2023-09-08T02:55:10;5.40;;;4.80;;
17727;SDS011;8984;49.268;12.302;2023-09-08T02:57:48;5.87;;;5.23;;
17727;SDS011;8984;49.268;12.302;2023-09-08T03:00:16;8.80;;;4.77;;
17727;SDS011;8984;49.268;12.302;2023-09-08T03:02:45;5.07;;;4.57;;
17727;SDS011;8984;49.268;12.302;2023-09-08T03:05:21;6.60;;;5.17;;
17727;SDS011;8984;49.268;12.302;2023-09-08T03:07:49;5.87;;;5.27;;
17727;SDS011;8984;49.268;12.302;2023-09-08T03:10:17;6.50;;;4.80;;
17727;SDS011;8984;49.268;12.302;2023-09-08T03:12:53;5.70;;;5.10;;
17727;SDS011;8984;49.268;12.302;2023-09-08T03:15:37;6.40;;;5.43;;
17727;SDS011;8984;49.268;12.302;2023-09-08T03:18:06;9.07;;;4.83;;
17727;SDS011;8984;49.268;12.302;2023-09-08T03:20:35;6.70;;;5.07;;
17727;SDS011;8984;49.268;12.302;2023-09-08T03:23:06;5.90;;;5.07;;
17727;SDS011;8984;49.268;12.302;2023-09-08T03:25:36;6.37;;;4.97;;
17727;SDS011;8984;49.268;12.302;2023-09-08T03:28:22;5.23;;;4.73;;
17727;SDS011;8984;49.268;12.302;2023-09-08T03:31:02;6.93;;;5.20;;
17727;SDS011;8984;49.268;12.302;2023-09-08T03:33:33;5.43;;;4.63;;
17727;SDS011;8984;49.268;12.302;2023-09-08T03:36:00;6.57;;;5.27;;
17727;SDS011;8984;49.268;12.302;2023-09-08T03:38:34;5.67;;;4.87;;
17727;SDS011;8984;49.268;12.302;2023-09-08T03:41:06;6.30;;;5.23;;
17727;SDS011;8984;49.268;12.302;2023-09-08T03:43:42;5.47;;;4.87;;
17727;SDS011;8984;49.268;12.302;2023-09-08T03:46:10;6.23;;;5.10;;
17727;SDS011;8984;49.268;12.302;2023-09-08T03:48:38;6.57;;;4.90;;
17727;SDS011;8984;49.268;12.302;2023-09-08T03:51:10;5.47;;;4.97;;
17727;SDS011;8984;49.268;12.302;2023-09-08T03:53:38;6.70;;;5.00;;
17727;SDS011;8984;49.268;12.302;2023-09-08T03:56:08;6.00;;;5.30;;
17727;SDS011;8984;49.268;12.302;2023-09-08T03:58:39;6.57;;;5.33;;
17727;SDS011;8984;49.268;12.302;2023-09-08T04:01:14;5.80;;;5.20;;
17727;SDS011;8984;49.268;12.302;2023-09-08T04:03:50;7.07;;;4.93;;
17727;SDS011;8984;49.268;12.302;2023-09-08T04:06:21;6.30;;;5.70;;
17727;SDS011;8984;49.268;12.302;2023-09-08T04:08:54;6.63;;;5.77;;
17727;SDS011;8984;49.268;12.302;2023-09-08T04:11:28;5.73;;;4.83;;
17727;SDS011;8984;49.268;12.302;2023-09-08T04:13:58;6.73;;;5.53;;
17727;SDS011;8984;49.268;12.302;2023-09-08T04:16:42;5.47;;;4.90;;
17727;SDS011;8984;49.268;12.302;2023-09-08T04:19:11;5.33;;;4.83;;
17727;SDS011;8984;49.268;12.302;2023-09-08T04:21:55;9.43;;;5.33;;
17727;SDS011;8984;49.268;12.302;2023-09-08T04:24:39;6.80;;;5.10;;
17727;SDS011;8984;49.268;12.302;2023-09-08T04:27:11;6.17;;;5.20;;
17727;SDS011;8984;49.268;12.302;2023-09-08T04:29:44;7.17;;;5.47;;
17727;SDS011;8984;49.268;12.302;2023-09-08T04:32:27;8.23;;;5.30;;
17727;SDS011;8984;49.268;12.302;2023-09-08T04:34:57;8.27;;;5.80;;
17727;SDS011;8984;49.268;12.302;2023-09-08T04:37:30;5.47;;;4.97;;
17727;SDS011;8984;49.268;12.302;2023-09-08T04:39:58;5.90;;;5.27;;
17727;SDS011;8984;49.268;12.302;2023-09-08T04:42:29;6.43;;;5.50;;
17727;SDS011;8984;49.268;12.302;2023-09-08T04:45:13;6.10;;;5.50;;
17727;SDS011;8984;49.268;12.302;2023-09-08T04:48:09;5.20;;;4.67;;
17727;SDS011;8984;49.268;12.302;2023-09-08T04:50:41;8.17;;;5.40;;
17727;SDS011;8984;49.268;12.302;2023-09-08T04:53:09;9.40;;;5.27;;
17727;SDS011;8984;49.268;12.302;2023-09-08T04:55:39;6.37;;;5.63;;
17727;SDS011;8984;49.268;12.302;2023-09-08T04:58:07;8.43;;;5.27;;
17727;SDS011;8984;49.268;12.302;2023-09-08T05:00:46;9.43;;;6.17;;
17727;SDS011;8984;49.268;12.302;2023-09-08T05:03:21;6.40;;;5.20;;
17727;SDS011;8984;49.268;12.302;2023-09-08T05:05:57;5.70;;;5.10;;
17727;SDS011;8984;49.268;12.302;2023-09-08T05:08:48;6.60;;;4.93;;
17727;SDS011;8984;49.268;12.302;2023-09-08T05:22:12;8.20;;;5.27;;
17727;SDS011;8984;49.268;12.302;2023-09-08T05:24:39;6.27;;;4.60;;
17727;SDS011;8984;49.268;12.302;2023-09-08T05:27:06;5.00;;;4.10;;
17727;SDS011;8984;49.268;12.302;2023-09-08T05:29:33;6.40;;;4.20;;
17727;SDS011;8984;49.268;12.302;2023-09-08T05:31:59;4.80;;;4.28;;
17727;SDS011;8984;49.268;12.302;2023-09-08T05:34:26;5.28;;;4.55;;
17727;SDS011;8984;49.268;12.302;2023-09-08T05:36:53;5.45;;;4.55;;
17727;SDS011;8984;49.268;12.302;2023-09-08T05:39:21;7.43;;;4.10;;
17727;SDS011;8984;49.268;12.302;2023-09-08T05:41:48;4.55;;;4.00;;
17727;SDS011;8984;49.268;12.302;2023-09-08T05:44:14;6.63;;;4.18;;
17727;SDS011;8984;49.268;12.302;2023-09-08T05:46:41;7.07;;;4.53;;
17727;SDS011;8984;49.268;12.302;2023-09-08T05:49:08;6.05;;;4.70;;
17727;SDS011;8984;49.268;12.302;2023-09-08T05:51:35;6.65;;;4.15;;
17727;SDS011;8984;49.268;12.302;2023-09-08T05:54:01;9.27;;;4.30;;
17727;SDS011;8984;49.268;12.302;2023-09-08T05:56:30;8.90;;;3.90;;
17727;SDS011;8984;49.268;12.302;2023-09-08T05:58:58;5.60;;;4.00;;
17727;SDS011;8984;49.268;12.302;2023-09-08T06:01:26;6.63;;;4.75;;
17727;SDS011;8984;49.268;12.302;2023-09-08T06:03:53;5.75;;;3.92;;
17727;SDS011;8984;49.268;12.302;2023-09-08T06:06:20;6.45;;;4.65;;
17727;SDS011;8984;49.268;12.302;2023-09-08T06:08:46;4.57;;;4.05;;
17727;SDS011;8984;49.268;12.302;2023-09-08T06:11:13;7.63;;;4.43;;
17727;SDS011;8984;49.268;12.302;2023-09-08T06:13:42;7.82;;;3.72;;
17727;SDS011;8984;49.268;12.302;2023-09-08T06:16:08;4.30;;;3.90;;
17727;SDS011;8984;49.268;12.302;2023-09-08T06:18:35;7.05;;;4.07;;
17727;SDS011;8984;49.268;12.302;2023-09-08T06:21:05;6.10;;;4.05;;
17727;SDS011;8984;49.268;12.302;2023-09-08T06:23:32;6.05;;;4.47;;
17727;SDS011;8984;49.268;12.302;2023-09-08T06:25:59;4.85;;;4.35;;
17727;SDS011;8984;49.268;12.302;2023-09-08T06:28:26;6.28;;;4.18;;
17727;SDS011;8984;49.268;12.302;2023-09-08T06:30:55;4.38;;;3.97;;
17727;SDS011;8984;49.268;12.302;2023-09-08T06:33:21;5.88;;;4.15;;
17727;SDS011;8984;49.268;12.302;2023-09-08T06:35:48;5.45;;;4.30;;
17727;SDS011;8984;49.268;12.302;2023-09-08T06:38:15;8.20;;;4.60;;
17727;SDS011;8984;49.268;12.302;2023-09-08T06:40:42;6.75;;;4.45;;
17727;SDS011;8984;49.268;12.302;2023-09-08T06:43:09;6.00;;;4.82;;
17727;SDS011;8984;49.268;12.302;2023-09-08T06:45:37;6.38;;;4.40;;
17727;SDS011;8984;49.268;12.302;2023-09-08T06:48:06;4.70;;;4.30;;
17727;SDS011;8984;49.268;12.302;2023-09-08T06:50:33;5.97;;;4.40;;
17727;SDS011;8984;49.268;12.302;2023-09-08T06:53:00;5.60;;;4.20;;
17727;SDS011;8984;49.268;12.302;2023-09-08T06:55:27;6.70;;;4.45;;
17727;SDS011;8984;49.268;12.302;2023-09-08T06:57:54;4.68;;;4.10;;
17727;SDS011;8984;49.268;12.302;2023-09-08T07:00:21;4.88;;;4.32;;
17727;SDS011;8984;49.268;12.302;2023-09-08T07:02:47;6.65;;;4.35;;
17727;SDS011;8984;49.268;12.302;2023-09-08T07:05:17;6.18;;;4.35;;
17727;SDS011;8984;49.268;12.302;2023-09-08T07:07:43;5.70;;;4.45;;
17727;SDS011;8984;49.268;12.302;2023-09-08T07:10:10;4.32;;;3.92;;
17727;SDS011;8984;49.268;12.302;2023-09-08T07:12:38;6.18;;;4.47;;
17727;SDS011;8984;49.268;12.302;2023-09-08T07:15:05;5.30;;;3.75;;
17727;SDS011;8984;49.268;12.302;2023-09-08T07:17:33;4.38;;;3.90;;
17727;SDS011;8984;49.268;12.302;2023-09-08T07:20:00;5.95;;;4.18;;
17727;SDS011;8984;49.268;12.302;2023-09-08T07:22:29;5.63;;;3.50;;
17727;SDS011;8984;49.268;12.302;2023-09-08T07:24:55;4.40;;;3.72;;
17727;SDS011;8984;49.268;12.302;2023-09-08T07:27:22;5.82;;;3.80;;
17727;SDS011;8984;49.268;12.302;2023-09-08T07:29:49;8.18;;;4.10;;
17727;SDS011;8984;49.268;12.302;2023-09-08T07:32:17;7.75;;;4.18;;
17727;SDS011;8984;49.268;12.302;2023-09-08T07:34:44;4.85;;;3.80;;
17727;SDS011;8984;49.268;12.302;2023-09-08T07:37:11;5.35;;;3.97;;
17727;SDS011;8984;49.268;12.302;2023-09-08T07:39:39;5.38;;;4.20;;
17727;SDS011;8984;49.268;12.302;2023-09-08T07:42:07;5.15;;;4.03;;
17727;SDS011;8984;49.268;12.302;2023-09-08T07:44:34;7.55;;;4.40;;
17727;SDS011;8984;49.268;12.302;2023-09-08T07:47:01;4.53;;;3.97;;
17727;SDS011;8984;49.268;12.302;2023-09-08T07:49:28;5.05;;;4.03;;
17727;SDS011;8984;49.268;12.302;2023-09-08T07:51:54;6.82;;;4.45;;
17727;SDS011;8984;49.268;12.302;2023-09-08T07:54:21;6.90;;;4.63;;
17727;SDS011;8984;49.268;12.302;2023-09-08T07:56:49;5.82;;;4.30;;
17727;SDS011;8984;49.268;12.302;2023-09-08T07:59:16;8.02;;;4.55;;
17727;SDS011;8984;49.268;12.302;2023-09-08T08:01:43;5.75;;;4.20;;
17727;SDS011;8984;49.268;12.302;2023-09-08T08:04:10;5.55;;;4.22;;
17727;SDS011;8984;49.268;12.302;2023-09-08T08:06:36;6.00;;;4.22;;
17727;SDS011;8984;49.268;12.302;2023-09-08T08:09:04;4.68;;;4.20;;
17727;SDS011;8984;49.268;12.302;2023-09-08T08:11:31;6.63;;;3.78;;
17727;SDS011;8984;49.268;12.302;2023-09-08T08:13:59;5.60;;;3.97;;
17727;SDS011;8984;49.268;12.302;2023-09-08T08:16:26;5.05;;;4.47;;
17727;SDS011;8984;49.268;12.302;2023-09-08T08:18:52;7.63;;;4.25;;
17727;SDS011;8984;49.268;12.302;2023-09-08T08:21:19;4.30;;;3.85;;
17727;SDS011;8984;49.268;12.302;2023-09-08T08:23:47;4.70;;;4.20;;
17727;SDS011;8984;49.268;12.302;2023-09-08T08:26:14;6.72;;;4.13;;
17727;SDS011;8984;49.268;12.302;2023-09-08T08:28:41;4.78;;;4.28;;
17727;SDS011;8984;49.268;12.302;2023-09-08T08:31:09;4.38;;;3.75;;
17727;SDS011;8984;49.268;12.302;2023-09-08T08:33:36;4.70;;;4.20;;
17727;SDS011;8984;49.268;12.302;2023-09-08T08:36:03;5.60;;;4.05;;
17727;SDS011;8984;49.268;12.302;2023-09-08T08:38:30;5.85;;;4.43;;
17727;SDS011;8984;49.268;12.302;2023-09-08T08:41:01;6.82;;;3.88;;
17727;SDS011;8984;49.268;12.302;2023-09-08T08:43:29;5.18;;;3.85;;
17727;SDS011;8984;49.268;12.302;2023-09-08T08:45:57;8.30;;;4.38;;
17727;SDS011;8984;49.268;12.302;2023-09-08T08:48:27;5.10;;;3.90;;
17727;SDS011;8984;49.268;12.302;2023-09-08T08:50:55;4.25;;;3.85;;
17727;SDS011;8984;49.268;12.302;2023-09-08T08:53:23;4.55;;;3.83;;
17727;SDS011;8984;49.268;12.302;2023-09-08T08:55:51;5.32;;;4.18;;
17727;SDS011;8984;49.268;12.302;2023-09-08T08:58:20;5.20;;;4.15;;
17727;SDS011;8984;49.268;12.302;2023-09-08T09:00:50;7.28;;;4.20;;
17727;SDS011;8984;49.268;12.302;2023-09-08T09:03:18;4.38;;;3.45;;
17727;SDS011;8984;49.268;12.302;2023-09-08T09:05:47;6.88;;;3.88;;
17727;SDS011;8984;49.268;12.302;2023-09-08T09:08:14;5.00;;;3.53;;
17727;SDS011;8984;49.268;12.302;2023-09-08T09:10:42;5.05;;;4.13;;
17727;SDS011;8984;49.268;12.302;2023-09-08T09:13:09;7.93;;;3.60;;
17727;SDS011;8984;49.268;12.302;2023-09-08T09:15:36;5.82;;;4.13;;
17727;SDS011;8984;49.268;12.302;2023-09-08T09:18:03;4.07;;;3.30;;
17727;SDS011;8984;49.268;12.302;2023-09-08T09:20:31;9.25;;;3.83;;
17727;SDS011;8984;49.268;12.302;2023-09-08T09:23:00;4.80;;;3.42;;
17727;SDS011;8984;49.268;12.302;2023-09-08T09:25:28;4.22;;;3.40;;
17727;SDS011;8984;49.268;12.302;2023-09-08T09:27:56;5.32;;;3.60;;
17727;SDS011;8984;49.268;12.302;2023-09-08T09:30:24;5.25;;;3.58;;
17727;SDS011;8984;49.268;12.302;2023-09-08T09:32:58;6.18;;;3.22;;
17727;SDS011;8984;49.268;12.302;2023-09-08T09:35:39;6.82;;;3.80;;
17727;SDS011;8984;49.268;12.302;2023-09-08T09:38:08;6.07;;;3.53;;
17727;SDS011;8984;49.268;12.302;2023-09-08T09:40:35;7.20;;;3.42;;
17727;SDS011;8984;49.268;12.302;2023-09-08T09:43:03;4.63;;;3.88;;
17727;SDS011;8984;49.268;12.302;2023-09-08T09:45:32;5.43;;;3.78;;
17727;SDS011;8984;49.268;12.302;2023-09-08T09:48:00;4.05;;;3.50;;
17727;SDS011;8984;49.268;12.302;2023-09-08T09:50:28;6.10;;;3.53;;
17727;SDS011;8984;49.268;12.302;2023-09-08T09:52:57;4.10;;;3.40;;
17727;SDS011;8984;49.268;12.302;2023-09-08T09:55:27;5.82;;;3.45;;
17727;SDS011;8984;49.268;12.302;2023-09-08T09:57:55;3.95;;;3.38;;
17727;SDS011;8984;49.268;12.302;2023-09-08T10:00:25;6.53;;;3.55;;
17727;SDS011;8984;49.268;12.302;2023-09-08T10:02:53;5.45;;;3.38;;
17727;SDS011;8984;49.268;12.302;2023-09-08T10:05:20;4.45;;;3.20;;
17727;SDS011;8984;49.268;12.302;2023-09-08T10:07:47;4.75;;;3.50;;
17727;SDS011;8984;49.268;12.302;2023-09-08T10:10:15;4.93;;;3.15;;
17727;SDS011;8984;49.268;12.302;2023-09-08T10:12:44;4.53;;;3.30;;
17727;SDS011;8984;49.268;12.302;2023-09-08T10:15:12;4.13;;;3.30;;
17727;SDS011;8984;49.268;12.302;2023-09-08T10:17:44;3.67;;;3.20;;
17727;SDS011;8984;49.268;12.302;2023-09-08T10:20:12;3.72;;;3.00;;
17727;SDS011;8984;49.268;12.302;2023-09-08T10:22:41;5.55;;;3.60;;
17727;SDS011;8984;49.268;12.302;2023-09-08T10:25:09;5.03;;;3.20;;
17727;SDS011;8984;49.268;12.302;2023-09-08T10:27:40;5.15;;;3.45;;
17727;SDS011;8984;49.268;12.302;2023-09-08T10:30:08;5.22;;;3.35;;
17727;SDS011;8984;49.268;12.302;2023-09-08T10:32:36;4.82;;;3.08;;
17727;SDS011;8984;49.268;12.302;2023-09-08T10:35:06;3.67;;;3.25;;
17727;SDS011;8984;49.268;12.302;2023-09-08T10:37:34;5.10;;;3.17;;
17727;SDS011;8984;49.268;12.302;2023-09-08T10:42:47;5.75;;;3.25;;
17727;SDS011;8984;49.268;12.302;2023-09-08T10:45:16;3.90;;;3.00;;
17727;SDS011;8984;49.268;12.302;2023-09-08T10:47:56;3.55;;;3.00;;
17727;SDS011;8984;49.268;12.302;2023-09-08T10:50:26;3.30;;;3.00;;
17727;SDS011;8984;49.268;12.302;2023-09-08T10:53:06;3.85;;;2.65;;
17727;SDS011;8984;49.268;12.302;2023-09-08T10:55:36;4.85;;;3.17;;
17727;SDS011;8984;49.268;12.302;2023-09-08T10:58:03;4.55;;;2.90;;
17727;SDS011;8984;49.268;12.302;2023-09-08T11:00:43;5.88;;;3.00;;
17727;SDS011;8984;49.268;12.302;2023-09-08T11:03:12;3.30;;;2.75;;
17727;SDS011;8984;49.268;12.302;2023-09-08T11:05:41;4.18;;;3.20;;
17727;SDS011;8984;49.268;12.302;2023-09-08T11:08:09;6.30;;;3.10;;
17727;SDS011;8984;49.268;12.302;2023-09-08T11:10:36;3.90;;;2.97;;
17727;SDS011;8984;49.268;12.302;2023-09-08T11:13:05;3.60;;;3.10;;
17727;SDS011;8984;49.268;12.302;2023-09-08T11:15:32;4.22;;;3.50;;
17727;SDS011;8984;49.268;12.302;2023-09-08T11:18:05;5.72;;;3.47;;
17727;SDS011;8984;49.268;12.302;2023-09-08T11:20:33;3.58;;;3.22;;
17727;SDS011;8984;49.268;12.302;2023-09-08T11:23:00;4.30;;;3.10;;
17727;SDS011;8984;49.268;12.302;2023-09-08T11:25:28;4.47;;;3.13;;
17727;SDS011;8984;49.268;12.302;2023-09-08T11:27:55;5.43;;;3.10;;
17727;SDS011;8984;49.268;12.302;2023-09-08T11:30:23;4.50;;;3.25;;
17727;SDS011;8984;49.268;12.302;2023-09-08T11:32:51;5.30;;;2.80;;
17727;SDS011;8984;49.268;12.302;2023-09-08T11:35:19;4.53;;;2.97;;
17727;SDS011;8984;49.268;12.302;2023-09-08T11:37:46;3.97;;;3.03;;
17727;SDS011;8984;49.268;12.302;2023-09-08T11:40:16;3.47;;;2.85;;
17727;SDS011;8984;49.268;12.302;2023-09-08T11:42:45;4.25;;;2.70;;
17727;SDS011;8984;49.268;12.302;2023-09-08T11:45:12;3.13;;;2.80;;
17727;SDS011;8984;49.268;12.302;2023-09-08T11:47:40;4.20;;;3.10;;
17727;SDS011;8984;49.268;12.302;2023-09-08T11:50:08;3.67;;;2.95;;
17727;SDS011;8984;49.268;12.302;2023-09-08T11:52:38;3.53;;;3.22;;
17727;SDS011;8984;49.268;12.302;2023-09-08T11:55:06;3.33;;;2.88;;
17727;SDS011;8984;49.268;12.302;2023-09-08T11:57:33;3.67;;;2.90;;
17727;SDS011;8984;49.268;12.302;2023-09-08T12:00:00;5.43;;;3.13;;
17727;SDS011;8984;49.268;12.302;2023-09-08T12:02:33;3.90;;;2.80;;
17727;SDS011;8984;49.268;12.302;2023-09-08T12:05:01;3.33;;;2.80;;
17727;SDS011;8984;49.268;12.302;2023-09-08T12:07:28;3.72;;;2.58;;
17727;SDS011;8984;49.268;12.302;2023-09-08T12:09:56;4.05;;;2.88;;
17727;SDS011;8984;49.268;12.302;2023-09-08T12:12:24;3.90;;;2.70;;
17727;SDS011;8984;49.268;12.302;2023-09-08T12:14:51;3.60;;;2.80;;
17727;SDS011;8984;49.268;12.302;2023-09-08T12:17:20;4.28;;;2.88;;
17727;SDS011;8984;49.268;12.302;2023-09-08T12:19:49;3.47;;;2.72;;
17727;SDS011;8984;49.268;12.302;2023-09-08T12:22:16;3.20;;;2.90;;
17727;SDS011;8984;49.268;12.302;2023-09-08T12:24:47;4.07;;;2.72;;
17727;SDS011;8984;49.268;12.302;2023-09-08T12:27:27;5.38;;;3.05;;
17727;SDS011;8984;49.268;12.302;2023-09-08T12:29:55;2.70;;;2.47;;
17727;SDS011;8984;49.268;12.302;2023-09-08T12:32:23;3.55;;;2.70;;
17727;SDS011;8984;49.268;12.302;2023-09-08T12:34:50;5.32;;;2.55;;
17727;SDS011;8984;49.268;12.302;2023-09-08T12:37:21;4.90;;;2.63;;
17727;SDS011;8984;49.268;12.302;2023-09-08T12:39:48;3.20;;;2.90;;
17727;SDS011;8984;49.268;12.302;2023-09-08T12:42:17;4.03;;;3.13;;
17727;SDS011;8984;49.268;12.302;2023-09-08T12:44:45;4.72;;;2.90;;
17727;SDS011;8984;49.268;12.302;2023-09-08T12:47:11;6.40;;;2.83;;
17727;SDS011;8984;49.268;12.302;2023-09-08T12:49:39;6.22;;;3.00;;
17727;SDS011;8984;49.268;12.302;2023-09-08T12:52:06;3.53;;;2.63;;
17727;SDS011;8984;49.268;12.302;2023-09-08T12:54:33;3.50;;;2.67;;
17727;SDS011;8984;49.268;12.302;2023-09-08T12:57:00;5.18;;;3.10;;
17727;SDS011;8984;49.268;12.302;2023-09-08T12:59:28;4.68;;;2.70;;
17727;SDS011;8984;49.268;12.302;2023-09-08T13:01:55;3.03;;;2.70;;
17727;SDS011;8984;49.268;12.302;2023-09-08T13:04:23;4.10;;;2.75;;
17727;SDS011;8984;49.268;12.302;2023-09-08T13:06:50;2.92;;;2.42;;
17727;SDS011;8984;49.268;12.302;2023-09-08T13:09:17;4.07;;;2.65;;
17727;SDS011;8984;49.268;12.302;2023-09-08T13:11:44;3.58;;;2.78;;
17727;SDS011;8984;49.268;12.302;2023-09-08T13:14:11;6.32;;;2.80;;
17727;SDS011;8984;49.268;12.302;2023-09-08T13:16:39;3.40;;;2.78;;
17727;SDS011;8984;49.268;12.302;2023-09-08T13:19:06;3.45;;;2.63;;
17727;SDS011;8984;49.268;12.302;2023-09-08T13:21:33;3.20;;;2.67;;
17727;SDS011;8984;49.268;12.302;2023-09-08T13:23:59;3.88;;;2.70;;
17727;SDS011;8984;49.268;12.302;2023-09-08T13:26:26;3.22;;;2.55;;
17727;SDS011;8984;49.268;12.302;2023-09-08T13:28:53;3.72;;;2.78;;
17727;SDS011;8984;49.268;12.302;2023-09-08T13:31:20;3.28;;;2.80;;
17727;SDS011;8984;49.268;12.302;2023-09-08T13:33:48;4.93;;;2.85;;
17727;SDS011;8984;49.268;12.302;2023-09-08T13:36:15;2.92;;;2.50;;
17727;SDS011;8984;49.268;12.302;2023-09-08T13:38:42;3.92;;;2.97;;
17727;SDS011;8984;49.268;12.302;2023-09-08T13:41:08;4.63;;;2.60;;
17727;SDS011;8984;49.268;12.302;2023-09-08T13:43:35;6.28;;;2.83;;
17727;SDS011;8984;49.268;12.302;2023-09-08T13:46:02;4.40;;;2.78;;
17727;SDS011;8984;49.268;12.302;2023-09-08T13:48:29;3.30;;;3.00;;
17727;SDS011;8984;49.268;12.302;2023-09-08T13:51:01;4.10;;;2.75;;
17727;SDS011;8984;49.268;12.302;2023-09-08T13:53:28;3.75;;;2.80;;
17727;SDS011;8984;49.268;12.302;2023-09-08T13:55:56;3.13;;;2.70;;
17727;SDS011;8984;49.268;12.302;2023-09-08T13:58:23;3.42;;;3.08;;
17727;SDS011;8984;49.268;12.302;2023-09-08T14:00:49;3.15;;;2.83;;
17727;SDS011;8984;49.268;12.302;2023-09-08T14:03:17;3.38;;;2.92;;
17727;SDS011;8984;49.268;12.302;2023-09-08T14:05:44;5.72;;;2.97;;
17727;SDS011;8984;49.268;12.302;2023-09-08T14:08:12;3.47;;;2.80;;
17727;SDS011;8984;49.268;12.302;2023-09-08T14:10:39;3.60;;;3.13;;
17727;SDS011;8984;49.268;12.302;2023-09-08T14:13:06;4.50;;;3.58;;
17727;SDS011;8984;49.268;12.302;2023-09-08T14:15:32;3.35;;;2.75;;
17727;SDS011;8984;49.268;12.302;2023-09-08T14:17:59;2.97;;;2.58;;
17727;SDS011;8984;49.268;12.302;2023-09-08T14:20:26;3.45;;;2.85;;
17727;SDS011;8984;49.268;12.302;2023-09-08T14:22:53;4.75;;;2.70;;
17727;SDS011;8984;49.268;12.302;2023-09-08T14:25:21;4.30;;;2.90;;
17727;SDS011;8984;49.268;12.302;2023-09-08T14:27:48;3.05;;;2.70;;
17727;SDS011;8984;49.268;12.302;2023-09-08T14:30:15;6.70;;;3.15;;
17727;SDS011;8984;49.268;12.302;2023-09-08T14:32:42;3.47;;;2.80;;
17727;SDS011;8984;49.268;12.302;2023-09-08T14:35:09;3.55;;;2.90;;
17727;SDS011;8984;49.268;12.302;2023-09-08T14:37:36;3.33;;;2.70;;
17727;SDS011;8984;49.268;12.302;2023-09-08T14:40:03;3.20;;;2.90;;
17727;SDS011;8984;49.268;12.302;2023-09-08T14:42:32;4.10;;;3.00;;
17727;SDS011;8984;49.268;12.302;2023-09-08T14:44:59;5.32;;;3.08;;
17727;SDS011;8984;49.268;12.302;2023-09-08T14:47:26;3.33;;;2.88;;
17727;SDS011;8984;49.268;12.302;2023-09-08T14:49:53;4.00;;;2.70;;
17727;SDS011;8984;49.268;12.302;2023-09-08T14:52:23;3.15;;;2.80;;
17727;SDS011;8984;49.268;12.302;2023-09-08T14:54:55;4.15;;;3.00;;
17727;SDS011;8984;49.268;12.302;2023-09-08T14:57:24;4.20;;;3.00;;
17727;SDS011;8984;49.268;12.302;2023-09-08T14:59:53;5.35;;;2.90;;
17727;SDS011;8984;49.268;12.302;2023-09-08T15:02:21;3.38;;;2.60;;
17727;SDS011;8984;49.268;12.302;2023-09-08T15:05:04;3.08;;;2.78;;
17727;SDS011;8984;49.268;12.302;2023-09-08T15:07:36;4.82;;;3.45;;
17727;SDS011;8984;49.268;12.302;2023-09-08T15:10:05;4.07;;;3.15;;
17727;SDS011;8984;49.268;12.302;2023-09-08T15:12:35;4.03;;;3.13;;
17727;SDS011;8984;49.268;12.302;2023-09-08T15:15:08;4.78;;;2.85;;
17727;SDS011;8984;49.268;12.302;2023-09-08T15:17:38;3.38;;;2.80;;